Terminal Aerodrome Forecast
Issued by NWS

Home | Current Version | Previous Version | Text Only | Print | Product List | Glossary On
Versions: 1 2 3 4 5 6 7 8 9 10 11
441
FTUS43 KLSX 221729
TAFCPS
TAF
KCPS 221729Z 2218/2318 02015G23KT P6SM FEW030 BKN100
     FM230000 04007KT P6SM BKN150
     FM230600 01004KT P6SM SKC=

USA.gov is the U.S. government's official web portal to all federal, state and local government web resources and services.